Time;durP1;ratioP1;P1;durP2;ratioP2;P2;SDS_P1;SDS_P2;PMS_P1;PMS_P2;Temp;Humidity;BMP_temperature;BMP_pressure;BME280_temperature;BME280_humidity;BME280_pressure;Samples;Min_cycle;Max_cycle;Signal;HPM_P1;HPM_P2
2021/08/11 00:00:22;;;;;;;5.07;3.65;;;18.30;99.90;;;;;;4993679;28;20036;-72
2021/08/11 00:02:48;;;;;;;6.72;4.93;;;18.30;99.90;;;;;;4992432;28;20109;-72
2021/08/11 00:05:13;;;;;;;5.63;4.20;;;18.30;99.90;;;;;;4993361;28;20101;-73
2021/08/11 00:07:39;;;;;;;7.43;4.40;;;18.40;99.90;;;;;;4993392;28;20023;-73
2021/08/11 00:10:06;;;;;;;6.80;4.13;;;18.30;99.90;;;;;;4992168;28;20478;-73
2021/08/11 00:12:32;;;;;;;5.13;3.67;;;18.30;99.90;;;;;;4993597;28;20093;-71
2021/08/11 00:14:57;;;;;;;9.20;5.60;;;18.30;99.90;;;;;;4993369;28;20390;-72
2021/08/11 00:17:23;;;;;;;7.47;3.80;;;18.30;99.90;;;;;;4993216;28;20046;-73
2021/08/11 00:19:49;;;;;;;7.45;4.25;;;18.30;99.90;;;;;;4993197;28;20026;-73
2021/08/11 00:22:15;;;;;;;4.93;3.85;;;18.20;99.90;;;;;;4992991;28;20022;-71
2021/08/11 00:24:40;;;;;;;5.47;3.67;;;18.20;99.90;;;;;;4991886;28;20081;-71
2021/08/11 00:27:06;;;;;;;5.50;4.50;;;18.10;99.90;;;;;;4991752;28;20062;-72
2021/08/11 00:29:32;;;;;;;9.32;6.20;;;18.10;99.90;;;;;;4991950;28;20037;-72
2021/08/11 00:31:57;;;;;;;6.78;4.07;;;18.10;99.90;;;;;;4993141;28;20126;-73
2021/08/11 00:34:23;;;;;;;7.68;4.72;;;18.10;99.90;;;;;;4991800;28;20030;-72
2021/08/11 00:36:48;;;;;;;7.03;4.00;;;18.00;99.90;;;;;;4992832;28;20084;-71
2021/08/11 00:39:14;;;;;;;9.75;4.28;;;17.90;99.90;;;;;;4993147;28;20486;-72
2021/08/11 00:41:46;;;;;;;4.82;4.10;;;17.90;99.90;;;;;;4992972;28;20203;-72
2021/08/11 00:44:13;;;;;;;6.05;3.95;;;17.80;99.90;;;;;;4992916;28;20059;-71
2021/08/11 00:46:42;;;;;;;5.40;4.10;;;17.80;99.90;;;;;;4991373;28;20030;-73
2021/08/11 00:49:12;;;;;;;4.03;3.47;;;17.80;99.90;;;;;;4992903;28;20022;-72
2021/08/11 00:51:39;;;;;;;10.13;4.32;;;17.80;99.90;;;;;;4992207;28;20146;-72
2021/08/11 00:54:05;;;;;;;8.02;4.18;;;17.80;99.90;;;;;;4991437;28;20027;-72
2021/08/11 00:56:33;;;;;;;4.90;3.58;;;17.80;99.90;;;;;;4992541;28;21059;-73
2021/08/11 00:58:59;;;;;;;4.43;3.78;;;17.80;99.90;;;;;;4992742;28;20038;-73
2021/08/11 01:01:26;;;;;;;5.20;3.83;;;17.80;99.90;;;;;;4992540;28;20023;-73
2021/08/11 01:03:54;;;;;;;5.68;3.90;;;17.90;99.90;;;;;;4992634;28;20026;-73
2021/08/11 01:06:21;;;;;;;5.13;3.80;;;17.90;99.90;;;;;;4992439;28;20023;-72
2021/08/11 01:08:47;;;;;;;8.32;3.80;;;18.00;99.90;;;;;;4992529;28;20445;-72
2021/08/11 01:11:13;;;;;;;6.75;4.97;;;17.90;99.90;;;;;;4992739;28;20026;-71
2021/08/11 01:13:42;;;;;;;8.27;4.68;;;17.90;99.90;;;;;;4991281;28;20031;-72
2021/08/11 01:16:08;;;;;;;6.50;4.25;;;17.90;99.90;;;;;;4992378;28;20037;-72
2021/08/11 01:18:34;;;;;;;6.22;4.28;;;17.90;99.90;;;;;;4992340;28;20037;-71
2021/08/11 01:21:14;;;;;;;5.95;4.47;;;17.90;99.90;;;;;;4992421;28;20401;-73
2021/08/11 01:23:58;;;;;;;6.78;3.78;;;17.90;99.90;;;;;;4991306;28;20022;-72
2021/08/11 01:26:36;;;;;;;6.75;4.60;;;18.00;99.90;;;;;;4992381;28;20380;-71
2021/08/11 01:29:30;;;;;;;7.57;3.97;;;18.00;99.90;;;;;;4991132;28;20027;-72
2021/08/11 01:32:16;;;;;;;5.57;3.78;;;18.20;99.90;;;;;;4966543;28;20498;-73
2021/08/11 01:34:46;;;;;;;4.82;3.25;;;18.20;99.90;;;;;;4992360;28;20066;-74
2021/08/11 01:37:23;;;;;;;7.28;4.20;;;18.10;99.90;;;;;;4992203;28;20083;-74
2021/08/11 01:39:53;;;;;;;4.25;3.85;;;18.10;99.90;;;;;;4992300;28;20023;-75
2021/08/11 01:42:33;;;;;;;9.50;3.70;;;18.00;99.90;;;;;;4992462;28;20026;-75
2021/08/11 01:45:01;;;;;;;7.05;3.13;;;17.90;99.90;;;;;;4992364;28;20476;-74
2021/08/11 01:47:36;;;;;;;5.80;4.00;;;17.90;99.90;;;;;;4992144;28;20053;-73
2021/08/11 01:50:02;;;;;;;4.18;3.17;;;17.90;99.90;;;;;;4992131;28;20067;-75
2021/08/11 01:52:28;;;;;;;6.20;4.13;;;17.90;99.90;;;;;;4992271;28;20467;-74
2021/08/11 01:54:54;;;;;;;7.13;4.47;;;17.70;99.90;;;;;;4990886;28;20030;-74
2021/08/11 01:57:20;;;;;;;7.88;4.10;;;17.70;99.90;;;;;;4990815;28;20501;-74
2021/08/11 01:59:47;;;;;;;9.75;4.32;;;17.80;99.90;;;;;;4992519;28;20106;-74
2021/08/11 02:02:17;;;;;;;10.07;4.35;;;17.70;99.90;;;;;;4992774;28;20394;-74
2021/08/11 02:04:43;;;;;;;7.80;3.50;;;17.60;99.90;;;;;;4995866;28;20177;-73
2021/08/11 02:07:10;;;;;;;10.93;3.65;;;17.70;99.90;;;;;;4995716;28;20494;-74
2021/08/11 02:09:37;;;;;;;5.45;3.72;;;17.70;99.90;;;;;;4996102;28;20030;-73
2021/08/11 02:12:03;;;;;;;5.95;4.18;;;17.80;99.90;;;;;;4995684;28;20105;-74
2021/08/11 02:14:29;;;;;;;6.85;3.70;;;17.70;99.90;;;;;;4995473;28;20037;-74
2021/08/11 02:16:55;;;;;;;6.50;4.03;;;17.50;99.90;;;;;;4994009;28;20507;-74
2021/08/11 02:19:20;;;;;;;7.13;4.78;;;17.40;99.90;;;;;;4994375;28;20034;-74
2021/08/11 02:21:46;;;;;;;6.00;4.00;;;17.40;99.90;;;;;;4995422;28;20033;-74
2021/08/11 02:24:12;;;;;;;4.28;3.85;;;17.50;99.90;;;;;;4995380;28;20394;-75
2021/08/11 02:26:59;;;;;;;6.90;3.90;;;17.60;99.90;;;;;;4995293;28;20109;-74
2021/08/11 02:29:28;;;;;;;4.63;3.97;;;17.60;99.90;;;;;;4994077;28;20478;-74
2021/08/11 02:32:19;;;;;;;5.53;3.85;;;17.50;99.90;;;;;;4995269;28;20026;-75
2021/08/11 02:34:54;;;;;;;6.75;4.28;;;17.40;99.90;;;;;;4995266;28;20121;-73
2021/08/11 02:37:27;;;;;;;5.10;4.50;;;17.30;99.90;;;;;;4993943;28;20018;-75
2021/08/11 02:40:10;;;;;;;6.70;4.35;;;17.20;99.90;;;;;;4993956;28;20034;-74
2021/08/11 02:42:41;;;;;;;5.38;4.13;;;17.10;99.90;;;;;;4995161;28;20022;-74
2021/08/11 02:45:09;;;;;;;;;;;17.00;99.90;;;;;;4994216;28;20069;-73
2021/08/11 02:47:37;;;;;;;6.93;4.43;;;17.00;99.90;;;;;;4995133;28;20354;-74
2021/08/11 02:50:05;;;;;;;7.68;4.47;;;16.90;99.90;;;;;;4995077;28;20084;-73
2021/08/11 02:52:31;;;;;;;5.93;4.63;;;16.90;99.90;;;;;;4995040;28;20023;-75
2021/08/11 02:54:58;;;;;;;7.18;4.35;;;16.80;99.90;;;;;;4993984;28;20030;-74
2021/08/11 02:57:24;;;;;;;5.25;4.75;;;16.80;99.90;;;;;;4994752;28;20027;-74
2021/08/11 02:59:51;;;;;;;7.40;4.28;;;16.80;99.90;;;;;;4994781;28;20101;-73
2021/08/11 03:02:16;;;;;;;6.13;4.38;;;16.70;99.90;;;;;;4993814;28;20053;-76
2021/08/11 03:04:42;;;;;;;4.68;4.20;;;16.70;99.90;;;;;;4994597;28;20424;-74
2021/08/11 03:07:09;;;;;;;5.72;4.28;;;16.70;99.90;;;;;;4993260;28;20023;-73
2021/08/11 03:09:35;;;;;;;8.80;6.70;;;16.70;99.90;;;;;;4994757;28;20030;-73
2021/08/11 03:12:01;;;;;;;6.97;4.85;;;16.70;99.90;;;;;;4994458;28;20394;-74
2021/08/11 03:14:27;;;;;;;8.57;4.57;;;16.60;99.90;;;;;;4993997;28;20050;-74
2021/08/11 03:16:53;;;;;;;4.97;4.20;;;16.60;99.90;;;;;;4994379;28;20512;-74
2021/08/11 03:19:18;;;;;;;6.85;4.53;;;16.60;99.90;;;;;;4994602;28;20034;-74
2021/08/11 03:21:44;;;;;;;7.13;4.45;;;16.70;99.90;;;;;;4993199;28;20058;-74
2021/08/11 03:24:09;;;;;;;4.28;3.80;;;16.60;99.90;;;;;;4992931;28;20049;-74
2021/08/11 03:26:35;;;;;;;6.13;4.60;;;16.60;99.90;;;;;;4993956;28;20026;-73
2021/08/11 03:29:01;;;;;;;4.50;4.10;;;16.50;99.90;;;;;;4994074;28;20026;-73
2021/08/11 03:31:27;;;;;;;5.20;4.50;;;16.50;99.90;;;;;;4994085;28;20034;-73
2021/08/11 03:33:53;;;;;;;7.10;4.90;;;16.50;99.90;;;;;;4994117;28;20022;-73
2021/08/11 03:36:19;;;;;;;8.85;5.00;;;16.50;99.90;;;;;;4993903;28;20109;-74
2021/08/11 03:38:45;;;;;;;5.90;4.85;;;16.40;99.90;;;;;;4992761;28;20034;-74
2021/08/11 03:41:10;;;;;;;5.85;5.05;;;16.40;99.90;;;;;;4993909;28;20110;-73
2021/08/11 03:43:36;;;;;;;7.40;5.05;;;16.30;99.90;;;;;;4992611;28;20178;-75
2021/08/11 03:46:01;;;;;;;7.50;4.82;;;16.30;99.90;;;;;;4993761;28;20109;-73
2021/08/11 03:48:27;;;;;;;5.53;4.20;;;16.30;99.90;;;;;;4993725;28;20038;-74
2021/08/11 03:50:52;;;;;;;5.18;4.57;;;16.30;99.90;;;;;;4992525;28;20076;-74
2021/08/11 03:53:18;;;;;;;6.50;4.47;;;16.30;99.90;;;;;;4993892;28;20033;-74
2021/08/11 03:55:44;;;;;;;5.82;5.20;;;16.30;99.90;;;;;;4993654;28;20074;-73
2021/08/11 03:58:09;;;;;;;6.57;4.45;;;16.30;99.90;;;;;;4994067;28;20026;-75
2021/08/11 04:00:35;;;;;;;7.40;5.43;;;16.20;99.90;;;;;;4993682;28;20340;-74
2021/08/11 04:03:00;;;;;;;5.88;4.25;;;16.30;99.90;;;;;;4993600;28;20025;-74
2021/08/11 04:05:26;;;;;;;8.52;5.13;;;16.30;99.90;;;;;;4992761;28;20027;-73
2021/08/11 04:07:52;;;;;;;6.50;4.68;;;16.40;99.90;;;;;;4992124;28;20023;-74
2021/08/11 04:10:17;;;;;;;8.73;4.68;;;16.30;99.90;;;;;;4993521;28;20026;-74
2021/08/11 04:12:43;;;;;;;7.68;4.38;;;16.40;99.90;;;;;;4993970;28;20081;-73
2021/08/11 04:15:09;;;;;;;7.30;5.00;;;16.40;99.90;;;;;;4993334;28;20081;-73
2021/08/11 04:17:35;;;;;;;11.45;5.50;;;16.40;99.90;;;;;;4992194;28;20106;-74
2021/08/11 04:20:01;;;;;;;9.55;4.78;;;16.60;99.90;;;;;;4993399;28;20474;-74
2021/08/11 04:22:26;;;;;;;10.10;5.35;;;16.70;99.90;;;;;;4993728;28;20060;-74
2021/08/11 04:24:52;;;;;;;9.82;5.57;;;16.70;99.90;;;;;;4993466;28;20026;-75
2021/08/11 04:27:17;;;;;;;12.50;5.15;;;16.70;99.90;;;;;;4991202;28;20089;-74
2021/08/11 04:29:43;;;;;;;7.50;5.32;;;16.60;99.90;;;;;;4993335;28;20030;-74
2021/08/11 04:32:09;;;;;;;6.57;4.85;;;16.50;99.90;;;;;;4993398;28;20030;-73
2021/08/11 04:34:34;;;;;;;9.82;5.03;;;16.50;99.90;;;;;;4993354;28;20074;-73
2021/08/11 04:37:00;;;;;;;8.60;4.82;;;16.50;99.90;;;;;;4993190;28;20547;-74
2021/08/11 04:39:25;;;;;;;8.95;5.00;;;16.50;99.90;;;;;;4992982;28;20030;-75
2021/08/11 04:41:51;;;;;;;10.30;5.68;;;16.50;99.90;;;;;;4992982;28;20030;-75
2021/08/11 04:44:17;;;;;;;10.23;6.35;;;16.50;99.90;;;;;;4992739;28;20489;-73
2021/08/11 04:46:43;;;;;;;7.90;5.55;;;16.50;99.90;;;;;;4991420;28;20483;-73
2021/08/11 04:49:08;;;;;;;8.50;5.18;;;16.60;99.90;;;;;;4991521;28;20030;-74
2021/08/11 04:51:34;;;;;;;7.45;4.80;;;16.60;99.90;;;;;;4992911;28;20033;-74
2021/08/11 04:54:01;;;;;;;11.00;5.40;;;16.70;99.90;;;;;;4992730;28;20030;-74
2021/08/11 04:56:27;;;;;;;9.63;5.32;;;16.80;99.90;;;;;;4992443;28;20401;-75
2021/08/11 04:58:52;;;;;;;9.93;5.55;;;16.90;99.90;;;;;;4991297;28;20117;-74
2021/08/11 05:01:18;;;;;;;9.23;5.00;;;16.90;99.90;;;;;;4992591;28;20022;-75
2021/08/11 05:03:44;;;;;;;8.55;5.32;;;16.90;99.90;;;;;;4992673;28;20035;-75
2021/08/11 05:06:10;;;;;;;9.18;4.50;;;17.00;99.90;;;;;;4992684;28;20065;-75
2021/08/11 05:08:36;;;;;;;11.25;4.93;;;17.20;99.90;;;;;;4992636;28;20045;-74
2021/08/11 05:11:02;;;;;;;7.07;4.18;;;17.80;99.90;;;;;;4992525;28;20022;-75
2021/08/11 05:13:28;;;;;;;7.32;4.65;;;18.70;99.90;;;;;;4992551;28;20026;-75
2021/08/11 05:15:53;;;;;;;6.57;4.22;;;19.60;99.90;;;;;;4992238;28;20023;-75
2021/08/11 05:18:20;;;;;;;6.30;4.50;;;19.90;99.90;;;;;;4992352;28;20022;-73
2021/08/11 05:20:45;;;;;;;10.20;4.60;;;20.20;99.90;;;;;;4991215;28;20061;-74
2021/08/11 05:23:11;;;;;;;7.20;3.80;;;20.10;99.90;;;;;;4990860;28;20026;-73
2021/08/11 05:25:36;;;;;;;8.95;4.40;;;20.40;99.90;;;;;;4992283;28;20033;-74
2021/08/11 05:28:02;;;;;;;4.40;3.45;;;20.60;99.90;;;;;;4992723;28;20026;-74
2021/08/11 05:30:28;;;;;;;6.30;3.80;;;20.90;99.90;;;;;;4992447;28;20383;-75
2021/08/11 05:32:54;;;;;;;7.03;3.88;;;20.90;99.90;;;;;;4992386;28;20390;-73
2021/08/11 05:35:20;;;;;;;10.48;4.88;;;20.90;99.90;;;;;;4992153;28;20026;-74
2021/08/11 05:37:45;;;;;;;5.97;3.63;;;21.00;99.90;;;;;;4993775;28;20026;-74
2021/08/11 05:40:11;;;;;;;7.03;4.05;;;21.30;99.90;;;;;;4996112;28;20031;-74
2021/08/11 05:42:37;;;;;;;6.65;3.42;;;21.80;99.90;;;;;;4996031;28;20030;-74
2021/08/11 05:45:04;;;;;;;8.85;4.15;;;22.00;99.90;;;;;;4995978;28;20106;-75
2021/08/11 05:47:30;;;;;;;5.45;3.47;;;22.30;99.90;;;;;;4994733;28;20490;-74
2021/08/11 05:49:56;;;;;;;7.20;3.88;;;22.90;99.90;;;;;;4994906;28;20035;-75
2021/08/11 05:52:21;;;;;;;6.22;3.63;;;23.20;99.90;;;;;;4994697;28;20029;-75
2021/08/11 05:54:49;;;;;;;6.72;3.63;;;23.80;99.90;;;;;;4995823;28;20027;-74
2021/08/11 05:57:15;;;;;;;5.13;3.53;;;23.90;99.90;;;;;;4995732;28;20026;-75
2021/08/11 05:59:41;;;;;;;6.65;3.17;;;24.20;99.90;;;;;;4995723;28;20026;-74
2021/08/11 06:02:07;;;;;;;4.78;3.30;;;24.30;99.90;;;;;;4995805;28;20026;-75
2021/08/11 06:04:32;;;;;;;5.85;3.50;;;23.80;99.90;;;;;;4995768;28;20475;-74
2021/08/11 06:06:58;;;;;;;6.20;4.13;;;23.70;99.90;;;;;;4995482;28;20029;-74
2021/08/11 06:09:24;;;;;;;6.13;3.90;;;24.10;99.90;;;;;;4995659;28;20111;-74
2021/08/11 06:11:49;;;;;;;6.82;3.83;;;23.90;99.90;;;;;;4995692;28;20045;-74
2021/08/11 06:14:15;;;;;;;10.93;4.35;;;23.50;99.90;;;;;;4994591;28;20035;-75
2021/08/11 06:16:40;;;;;;;13.35;5.07;;;22.60;99.90;;;;;;4995279;28;20057;-73
2021/08/11 06:19:06;;;;;;;7.45;4.25;;;22.10;99.90;;;;;;4995395;28;20034;-75
2021/08/11 06:21:31;;;;;;;11.07;5.38;;;21.80;99.90;;;;;;4994298;28;20054;-75
2021/08/11 06:23:57;;;;;;;7.63;4.30;;;21.30;99.90;;;;;;4995310;28;20018;-75
2021/08/11 06:26:23;;;;;;;9.15;4.78;;;21.50;99.90;;;;;;4995216;28;20054;-75
2021/08/11 06:28:49;;;;;;;9.13;4.75;;;21.40;99.90;;;;;;4994023;28;20025;-75
2021/08/11 06:31:17;;;;;;;9.82;5.47;;;21.20;99.90;;;;;;4995295;28;20029;-74
2021/08/11 06:33:44;;;;;;;8.50;5.00;;;21.10;99.90;;;;;;4995266;28;20018;-75
2021/08/11 06:36:10;;;;;;;9.20;5.57;;;21.00;99.90;;;;;;4993797;28;20022;-74
2021/08/11 06:38:36;;;;;;;12.45;5.78;;;20.90;99.90;;;;;;4993607;28;20045;-75
2021/08/11 06:41:01;;;;;;;10.30;4.95;;;20.70;99.90;;;;;;4993845;28;20479;-75
2021/08/11 06:43:27;;;;;;;6.18;4.32;;;20.30;99.90;;;;;;4995218;28;20033;-74
2021/08/11 06:45:52;;;;;;;8.55;4.40;;;20.20;99.90;;;;;;4995048;28;20026;-74
2021/08/11 06:48:18;;;;;;;6.47;4.25;;;20.70;99.90;;;;;;4993601;28;20028;-73
2021/08/11 06:50:44;;;;;;;10.05;4.70;;;20.60;99.90;;;;;;4994358;28;20026;-73
2021/08/11 06:53:15;;;;;;;16.23;5.00;;;20.50;99.90;;;;;;4994740;28;20031;-74
2021/08/11 06:55:41;;;;;;;6.50;4.82;;;20.70;99.90;;;;;;4994790;28;20026;-74
2021/08/11 06:58:06;;;;;;;5.68;4.40;;;20.50;99.90;;;;;;4993483;28;20033;-75
2021/08/11 07:00:32;;;;;;;11.02;4.80;;;20.60;99.90;;;;;;4994693;28;20030;-75
2021/08/11 07:02:57;;;;;;;10.80;5.53;;;20.40;99.90;;;;;;4994716;28;20471;-74
2021/08/11 07:05:23;;;;;;;6.47;5.15;;;20.10;99.90;;;;;;4994594;28;20034;-74
2021/08/11 07:07:49;;;;;;;10.60;4.40;;;20.10;99.90;;;;;;4994398;28;20019;-75
2021/08/11 07:10:16;;;;;;;9.88;4.50;;;19.90;99.90;;;;;;4994547;28;20089;-75
2021/08/11 07:12:43;;;;;;;8.20;5.53;;;19.90;99.90;;;;;;4993331;28;20029;-75
2021/08/11 07:15:10;;;;;;;8.27;4.88;;;20.20;99.90;;;;;;4994345;28;20031;-75
2021/08/11 07:17:35;;;;;;;7.22;5.20;;;20.50;99.90;;;;;;4993211;28;20173;-75
2021/08/11 07:20:07;;;;;;;11.40;5.47;;;20.70;99.90;;;;;;4994366;28;20482;-74
2021/08/11 07:22:33;;;;;;;7.50;4.57;;;21.00;99.90;;;;;;4993073;28;20023;-74
2021/08/11 07:24:59;;;;;;;10.80;4.38;;;21.10;99.90;;;;;;4994371;28;20027;-74
2021/08/11 07:27:24;;;;;;;7.13;4.55;;;21.20;99.90;;;;;;4992986;28;20545;-74
2021/08/11 07:29:50;;;;;;;9.10;4.30;;;21.60;99.90;;;;;;4993052;28;20030;-75
2021/08/11 07:32:15;;;;;;;7.50;4.75;;;21.70;99.90;;;;;;4994235;28;20022;-73
2021/08/11 07:34:41;;;;;;;7.00;4.78;;;21.80;99.90;;;;;;4993915;28;20023;-75
2021/08/11 07:37:06;;;;;;;6.68;4.68;;;22.10;99.90;;;;;;4993895;28;20110;-74
2021/08/11 07:39:32;;;;;;;12.50;6.10;;;22.40;99.90;;;;;;4994065;28;20031;-75
2021/08/11 07:41:57;;;;;;;11.48;4.43;;;22.20;99.90;;;;;;4992884;28;20027;-74
2021/08/11 07:44:23;;;;;;;8.38;4.90;;;22.00;99.90;;;;;;4992945;28;20410;-73
2021/08/11 07:46:48;;;;;;;8.82;5.32;;;22.10;99.90;;;;;;4992446;28;20471;-74
2021/08/11 07:49:14;;;;;;;7.38;4.82;;;22.50;99.90;;;;;;4993932;28;20490;-75
2021/08/11 07:51:39;;;;;;;9.80;5.20;;;22.70;99.90;;;;;;4992461;28;20112;-75
2021/08/11 07:54:05;;;;;;;8.38;5.57;;;22.90;99.90;;;;;;4993959;28;20037;-75
2021/08/11 07:56:31;;;;;;;9.73;4.43;;;23.10;99.90;;;;;;4993722;28;20098;-73
2021/08/11 07:58:56;;;;;;;9.15;5.70;;;23.30;99.90;;;;;;4993839;28;20375;-75
2021/08/11 08:01:22;;;;;;;13.63;5.00;;;23.40;99.90;;;;;;4993600;28;20066;-73
2021/08/11 08:03:48;;;;;;;13.75;4.80;;;23.50;99.90;;;;;;4993671;28;20031;-74
2021/08/11 08:06:14;;;;;;;7.00;4.50;;;23.50;99.90;;;;;;4993358;28;20046;-75
2021/08/11 08:08:39;;;;;;;8.07;4.40;;;23.60;99.90;;;;;;4993588;28;20018;-74
2021/08/11 08:11:05;;;;;;;9.48;4.53;;;23.60;99.90;;;;;;4993404;28;20033;-74
2021/08/11 08:13:31;;;;;;;4.53;4.10;;;23.80;99.90;;;;;;4993569;28;20386;-74
2021/08/11 08:15:56;;;;;;;5.40;4.40;;;23.60;99.90;;;;;;4993719;28;20077;-75
2021/08/11 08:18:22;;;;;;;7.65;4.18;;;23.70;99.90;;;;;;4993474;28;20030;-75
2021/08/11 08:20:55;;;;;;;7.40;3.78;;;23.90;99.90;;;;;;4993288;28;20437;-74
2021/08/11 08:23:22;;;;;;;5.63;4.45;;;23.90;99.90;;;;;;4992218;28;20019;-73
2021/08/11 08:25:48;;;;;;;11.05;4.28;;;24.00;99.90;;;;;;4993093;28;20077;-74
2021/08/11 08:28:13;;;;;;;7.45;3.97;;;24.10;99.90;;;;;;4993002;28;20106;-73
2021/08/11 08:30:41;;;;;;;9.25;4.75;;;24.10;99.90;;;;;;4993226;28;20490;-75
2021/08/11 08:33:07;;;;;;;9.45;4.28;;;24.00;99.90;;;;;;4993142;28;20038;-74
2021/08/11 08:35:32;;;;;;;10.48;4.55;;;24.30;99.90;;;;;;4993101;28;20084;-74
2021/08/11 08:37:58;;;;;;;6.10;3.88;;;24.50;99.90;;;;;;4993004;28;20069;-73
2021/08/11 08:40:30;;;;;;;7.32;4.20;;;24.60;99.90;;;;;;4991651;28;20090;-75
2021/08/11 08:42:56;;;;;;;8.75;4.28;;;24.60;99.90;;;;;;4992956;28;20031;-74
2021/08/11 08:45:21;;;;;;;4.55;3.58;;;24.60;99.90;;;;;;4991770;28;20064;-74
2021/08/11 08:47:47;;;;;;;5.57;4.18;;;24.50;99.90;;;;;;4991763;28;20026;-74
2021/08/11 08:50:15;;;;;;;5.40;3.90;;;24.70;99.90;;;;;;4993280;28;20027;-75
2021/08/11 08:52:44;;;;;;;6.22;3.58;;;24.80;99.90;;;;;;4992833;28;20023;-74
2021/08/11 08:55:10;;;;;;;4.47;3.38;;;24.80;99.90;;;;;;4992838;28;20030;-73
2021/08/11 08:57:35;;;;;;;7.82;3.10;;;24.90;99.90;;;;;;4991544;28;20129;-74
2021/08/11 09:00:05;;;;;;;8.63;4.00;;;25.00;99.90;;;;;;4992621;28;20554;-75
2021/08/11 09:02:31;;;;;;;7.22;2.90;;;25.00;99.90;;;;;;4991444;28;20058;-75
2021/08/11 09:04:56;;;;;;;4.70;3.47;;;25.10;99.90;;;;;;4992608;28;20491;-76
2021/08/11 09:07:22;;;;;;;9.07;5.07;;;25.40;99.90;;;;;;4992658;28;20018;-74
2021/08/11 09:09:48;;;;;;;5.68;3.47;;;25.10;99.90;;;;;;4992591;28;20357;-75
2021/08/11 09:12:20;;;;;;;5.82;3.60;;;25.00;99.90;;;;;;4992373;28;20101;-74
2021/08/11 09:14:51;;;;;;;6.78;3.85;;;25.30;99.90;;;;;;4993104;28;20041;-73
2021/08/11 09:17:31;;;;;;;5.60;3.22;;;25.50;99.90;;;;;;4991385;28;20045;-74
2021/08/11 09:19:57;;;;;;;;;;;25.60;99.90;;;;;;4993026;28;20041;-74
2021/08/11 09:22:23;;;;;;;5.00;3.15;;;25.50;99.90;;;;;;4992497;28;19992;-74
2021/08/11 09:25:03;;;;;;;5.68;2.90;;;25.50;99.90;;;;;;4992452;28;20069;-75
2021/08/11 09:27:29;;;;;;;4.07;3.13;;;25.80;99.90;;;;;;4992525;28;20022;-74
2021/08/11 09:30:12;;;;;;;9.30;3.63;;;25.80;99.90;;;;;;4992421;28;20057;-74
2021/08/11 09:33:02;;;;;;;4.38;3.42;;;25.90;99.90;;;;;;4992815;28;20105;-74
2021/08/11 09:35:32;;;;;;;5.15;3.38;;;26.00;99.90;;;;;;4992512;28;20026;-74
2021/08/11 09:38:05;;;;;;;4.25;2.85;;;25.90;99.90;;;;;;4990904;28;20551;-75
2021/08/11 09:40:33;;;;;;;5.13;3.08;;;26.20;99.90;;;;;;4991278;28;20031;-74
2021/08/11 09:43:07;;;;;;;5.82;2.70;;;26.20;99.90;;;;;;4991145;28;20031;-75
2021/08/11 09:45:56;;;;;;;5.95;2.72;;;26.10;99.90;;;;;;4992550;28;20106;-74
2021/08/11 09:48:24;;;;;;;3.13;2.42;;;26.50;99.90;;;;;;4991207;28;20081;-74
2021/08/11 09:51:00;;;;;;;5.10;2.33;;;26.40;99.90;;;;;;4992751;28;20046;-74
2021/08/11 09:53:28;;;;;;;3.83;2.25;;;26.70;99.90;;;;;;4992598;28;20097;-75
2021/08/11 09:56:08;;;;;;;2.67;1.95;;;27.00;99.90;;;;;;4991089;28;20483;-75
2021/08/11 09:58:34;;;;;;;3.13;2.53;;;27.40;99.90;;;;;;4992154;28;20042;-75
2021/08/11 10:01:00;;;;;;;3.03;2.72;;;27.40;99.90;;;;;;4991991;28;20285;-74
2021/08/11 10:03:26;;;;;;;5.10;2.63;;;27.20;99.90;;;;;;4990931;28;20023;-75
2021/08/11 10:05:53;;;;;;;4.10;3.00;;;27.40;99.90;;;;;;4991814;28;20026;-75
2021/08/11 10:08:30;;;;;;;4.05;2.67;;;27.10;99.90;;;;;;4991959;28;20050;-75
2021/08/11 10:10:56;;;;;;;3.28;2.65;;;26.90;99.90;;;;;;4991922;28;20084;-75
2021/08/11 10:13:23;;;;;;;2.95;2.40;;;26.70;99.90;;;;;;4992227;28;20061;-76
2021/08/11 10:15:50;;;;;;;4.10;3.00;;;26.50;99.90;;;;;;4991932;28;20034;-74
2021/08/11 10:18:19;;;;;;;3.00;2.55;;;26.80;99.90;;;;;;4992092;28;20034;-74
2021/08/11 10:20:47;;;;;;;4.22;3.20;;;27.10;99.90;;;;;;4991924;28;20100;-75
2021/08/11 10:23:16;;;;;;;3.55;2.63;;;27.20;99.90;;;;;;4990819;28;20482;-74
2021/08/11 10:25:42;;;;;;;3.28;2.50;;;26.50;99.90;;;;;;4993409;28;20049;-74
2021/08/11 10:28:08;;;;;;;7.03;2.65;;;26.60;99.90;;;;;;4998376;28;20027;-75
2021/08/11 10:30:34;;;;;;;4.60;2.53;;;26.50;99.90;;;;;;5002508;28;20034;-74
2021/08/11 10:33:01;;;;;;;5.03;2.53;;;26.70;99.90;;;;;;5004677;28;20041;-74
2021/08/11 10:35:29;;;;;;;6.97;2.85;;;26.70;99.90;;;;;;4997983;28;20037;-75
2021/08/11 10:37:56;;;;;;;4.45;2.35;;;26.60;99.90;;;;;;4995527;28;20034;-74
2021/08/11 10:40:21;;;;;;;4.38;2.67;;;26.70;99.90;;;;;;4995288;28;20031;-73
2021/08/11 10:42:56;;;;;;;3.72;2.33;;;26.70;99.90;;;;;;4995677;28;20044;-75
2021/08/11 10:45:26;;;;;;;5.20;3.05;;;26.80;99.90;;;;;;4995687;28;20022;-74
2021/08/11 10:47:52;;;;;;;2.72;2.28;;;26.80;99.90;;;;;;4995323;28;20089;-74
2021/08/11 10:50:18;;;;;;;4.80;2.63;;;26.50;99.90;;;;;;4994107;28;20030;-77
2021/08/11 10:52:44;;;;;;;3.47;3.13;;;26.70;99.90;;;;;;4995467;28;20098;-77
2021/08/11 10:55:10;;;;;;;4.35;2.63;;;27.10;99.90;;;;;;4994874;28;20391;-75
2021/08/11 10:57:36;;;;;;;3.72;2.58;;;27.00;99.90;;;;;;4999244;28;20029;-76
2021/08/11 11:00:06;;;;;;;3.10;2.20;;;27.00;99.90;;;;;;5005669;28;20030;-75
2021/08/11 11:02:37;;;;;;;3.03;2.50;;;27.10;99.50;;;;;;5010015;28;20026;-75
2021/08/11 11:05:04;;;;;;;3.83;2.60;;;27.40;99.30;;;;;;5011917;28;20033;-75
2021/08/11 11:07:30;;;;;;;3.75;2.72;;;27.60;99.30;;;;;;5013522;28;20022;-74
2021/08/11 11:10:27;;;;;;;4.95;2.67;;;28.00;99.20;;;;;;5013894;28;20400;-74
2021/08/11 11:12:53;;;;;;;5.75;3.03;;;28.10;98.80;;;;;;5016523;28;20041;-76
2021/08/11 11:15:40;;;;;;;2.75;2.42;;;28.10;98.70;;;;;;5018574;28;20030;-75
2021/08/11 11:18:23;;;;;;;4.00;2.45;;;28.00;98.50;;;;;;5017752;28;20030;-75
2021/08/11 11:20:55;;;;;;;2.72;2.45;;;27.80;98.80;;;;;;5018376;28;20034;-74
2021/08/11 11:23:35;;;;;;;3.25;2.33;;;28.40;98.50;;;;;;5017916;28;20026;-76
2021/08/11 11:26:11;;;;;;;4.07;2.42;;;28.70;97.70;;;;;;5018397;28;20041;-73
2021/08/11 11:28:56;;;;;;;4.50;2.10;;;28.80;97.40;;;;;;5018151;28;20098;-75
2021/08/11 11:31:41;;;;;;;3.45;2.30;;;28.60;97.10;;;;;;5018439;28;20090;-77
2021/08/11 11:34:25;;;;;;;3.10;2.78;;;27.90;98.10;;;;;;5019371;28;20023;-74
2021/08/11 11:36:57;;;;;;;4.28;3.25;;;26.60;99.90;;;;;;5017816;28;20050;-75
2021/08/11 11:39:26;;;;;;;3.85;2.45;;;26.30;99.90;;;;;;5018602;28;20061;-75
2021/08/11 11:42:22;;;;;;;4.40;2.53;;;26.20;99.90;;;;;;5017428;28;20030;-75
2021/08/11 11:44:57;;;;;;;3.80;2.60;;;26.50;99.90;;;;;;5017934;28;20106;-75
2021/08/11 11:47:35;;;;;;;5.25;3.00;;;27.10;99.90;;;;;;5016992;28;20014;-75
2021/08/11 11:50:22;;;;;;;4.30;2.85;;;27.30;99.90;;;;;;5016660;28;20030;-74
2021/08/11 11:52:53;;;;;;;4.78;2.63;;;26.90;99.90;;;;;;4999278;28;20033;-73
2021/08/11 11:55:39;;;;;;;7.95;3.00;;;26.90;99.90;;;;;;4996789;28;20081;-74
2021/08/11 11:58:08;;;;;;;4.55;2.50;;;27.20;99.90;;;;;;4995029;28;20041;-73
2021/08/11 12:00:35;;;;;;;4.85;2.30;;;27.40;99.90;;;;;;4994637;28;20474;-75
2021/08/11 12:03:01;;;;;;;7.90;2.90;;;27.40;98.60;;;;;;4994676;28;20033;-75
2021/08/11 12:05:28;;;;;;;4.30;2.50;;;27.80;98.20;;;;;;4994684;28;20097;-74
2021/08/11 12:07:54;;;;;;;7.18;2.38;;;28.00;98.20;;;;;;4992756;28;20026;-75
2021/08/11 12:10:28;;;;;;;2.83;2.42;;;27.80;98.50;;;;;;4994382;28;20085;-75
2021/08/11 12:13:00;;;;;;;4.30;2.25;;;27.90;98.30;;;;;;4994389;28;20053;-74
2021/08/11 12:15:27;;;;;;;2.90;2.45;;;28.00;97.90;;;;;;4995325;28;20026;-75
2021/08/11 12:17:56;;;;;;;4.35;2.85;;;27.50;98.80;;;;;;5001821;28;20057;-75
2021/08/11 12:20:36;;;;;;;6.40;2.50;;;27.30;98.60;;;;;;5002236;28;20053;-74
2021/08/11 12:23:24;;;;;;;3.63;2.67;;;26.90;99.40;;;;;;5005593;28;20026;-75
2021/08/11 12:25:52;;;;;;;12.35;3.30;;;26.90;99.20;;;;;;5007970;28;20029;-75
2021/08/11 12:28:20;;;;;;;3.15;2.28;;;26.70;99.50;;;;;;5008792;28;20030;-75
2021/08/11 12:30:57;;;;;;;3.67;2.47;;;26.60;99.40;;;;;;5013992;28;20018;-76
2021/08/11 12:33:25;;;;;;;6.28;2.30;;;27.00;99.20;;;;;;5016254;28;20023;-75
2021/08/11 12:35:51;;;;;;;7.03;3.30;;;27.30;98.60;;;;;;5015863;28;20030;-74
2021/08/11 12:38:32;;;;;;;4.97;2.60;;;27.60;98.80;;;;;;5015633;28;20086;-76
2021/08/11 12:41:12;;;;;;;2.58;2.38;;;28.10;98.10;;;;;;5016354;28;20022;-77
2021/08/11 12:43:38;;;;;;;3.43;2.40;;;28.20;97.70;;;;;;5018174;28;20018;-75
2021/08/11 12:46:05;;;;;;;2.63;2.03;;;28.00;97.80;;;;;;5017237;28;20035;-75
2021/08/11 12:48:33;;;;;;;5.20;2.72;;;27.50;98.50;;;;;;5015478;28;20014;-76
2021/08/11 12:51:07;;;;;;;6.78;2.30;;;27.40;98.90;;;;;;5015959;28;20042;-75